createdAt,value
2018-08-17T00:00:08.150Z,100689.23
2018-08-17T00:02:36.789Z,100689.23
2018-08-17T00:05:05.366Z,100686.55
2018-08-17T00:07:33.970Z,100687.83
2018-08-17T00:10:02.586Z,100685.15
2018-08-17T00:12:31.235Z,100687.45
2018-08-17T00:14:59.855Z,100690.42
2018-08-17T00:17:28.354Z,100685.72
2018-08-17T00:19:56.970Z,100684.00
2018-08-17T00:22:25.808Z,100684.66
2018-08-17T00:24:54.419Z,100684.55
2018-08-17T00:27:23.078Z,100685.11
2018-08-17T00:29:51.762Z,100685.84
2018-08-17T00:32:20.652Z,100689.91
2018-08-17T00:34:49.648Z,100695.55
2018-08-17T00:37:18.535Z,100705.85
2018-08-17T00:39:47.220Z,100708.16
2018-08-17T00:42:15.805Z,100705.68
2018-08-17T00:44:44.329Z,100701.38
2018-08-17T00:47:12.914Z,100703.72
2018-08-17T00:49:41.546Z,100703.34
2018-08-17T00:52:10.037Z,100702.65
2018-08-17T00:54:38.820Z,100704.61
2018-08-17T00:57:07.455Z,100703.88
2018-08-17T00:59:36.087Z,100704.87
2018-08-17T01:02:04.774Z,100698.66
2018-08-17T01:04:33.303Z,100703.19
2018-08-17T01:07:01.938Z,100702.20
2018-08-17T01:09:30.467Z,100704.19
2018-08-17T01:11:59.106Z,100696.42
2018-08-17T01:14:27.635Z,100698.11
2018-08-17T01:16:56.271Z,100706.87
2018-08-17T01:19:24.805Z,100696.50
2018-08-17T01:21:53.364Z,100702.34
2018-08-17T01:24:22.223Z,100700.65
2018-08-17T01:26:50.805Z,100698.66
2018-08-17T01:29:19.389Z,100700.17
2018-08-17T01:31:48.059Z,100702.84
2018-08-17T01:34:16.611Z,100706.87
2018-08-17T01:36:45.195Z,100711.84
2018-08-17T01:39:13.824Z,100715.86
2018-08-17T01:41:42.409Z,100717.58
2018-08-17T01:44:10.975Z,100707.83
2018-08-17T01:46:40.198Z,100716.86
2018-08-17T01:49:09.390Z,100712.49
2018-08-17T01:51:37.927Z,100708.37
2018-08-17T01:54:07.211Z,100711.05
2018-08-17T01:56:35.720Z,100697.58
2018-08-17T01:59:04.898Z,100700.45
2018-08-17T02:01:33.526Z,100701.61
2018-08-17T02:04:02.827Z,100713.20
2018-08-17T02:06:32.228Z,100718.95
2018-08-17T02:09:00.758Z,100719.73
2018-08-17T02:11:29.344Z,100709.98
2018-08-17T02:13:57.976Z,100705.96
2018-08-17T02:16:26.527Z,100703.28
2018-08-17T02:18:55.091Z,100702.94
2018-08-17T02:21:23.982Z,100704.55
2018-08-17T02:23:52.567Z,100707.87
2018-08-17T02:26:21.200Z,100710.16
2018-08-17T02:28:49.787Z,100711.72
2018-08-17T02:31:18.584Z,100703.85
2018-08-17T02:33:47.234Z,100701.01
2018-08-17T02:36:15.839Z,100707.09
2018-08-17T02:38:44.421Z,100704.89
2018-08-17T02:41:13.007Z,100699.19
2018-08-17T02:43:41.673Z,100705.27
2018-08-17T02:46:10.235Z,100702.94
2018-08-17T02:48:38.856Z,100707.95
2018-08-17T02:51:07.395Z,100702.94
2018-08-17T02:53:35.919Z,100698.45
2018-08-17T02:56:04.553Z,100695.90
2018-08-17T02:58:33.102Z,100698.92
2018-08-17T03:01:01.666Z,100693.22
2018-08-17T03:03:31.068Z,100688.21
2018-08-17T03:05:59.595Z,100690.89
2018-08-17T03:08:28.234Z,100694.31
2018-08-17T03:10:56.817Z,100685.62
2018-08-17T03:13:26.083Z,100680.64
2018-08-17T03:15:54.802Z,100690.63
2018-08-17T03:18:23.301Z,100679.19
2018-08-17T03:20:51.871Z,100683.20
2018-08-17T03:23:20.552Z,100686.39
2018-08-17T03:25:49.648Z,100683.20
2018-08-17T03:28:18.278Z,100684.55
2018-08-17T03:30:46.879Z,100677.16
2018-08-17T03:33:15.496Z,100674.96
2018-08-17T03:35:44.081Z,100667.60
2018-08-17T03:38:12.757Z,100680.72
2018-08-17T03:40:41.275Z,100676.14
2018-08-17T03:43:09.930Z,100673.48
2018-08-17T03:45:38.456Z,100681.78
2018-08-17T03:48:07.565Z,100692.27
2018-08-17T03:50:36.352Z,100684.37
2018-08-17T03:53:04.979Z,100683.03
2018-08-17T03:55:33.619Z,100679.37
2018-08-17T03:58:02.253Z,100683.03
2018-08-17T04:00:30.835Z,100675.00
2018-08-17T04:02:59.619Z,100670.64
2018-08-17T04:05:28.917Z,100678.67
2018-08-17T04:07:58.115Z,100684.37
2018-08-17T04:10:26.731Z,100682.05
2018-08-17T04:12:55.239Z,100681.91
2018-08-17T04:15:23.846Z,100687.77
2018-08-17T04:17:52.457Z,100691.41
2018-08-17T04:20:21.132Z,100689.45
2018-08-17T04:22:49.716Z,100685.10
2018-08-17T04:25:18.218Z,100689.11
2018-08-17T04:27:46.758Z,100686.30
2018-08-17T04:30:15.319Z,100691.53
2018-08-17T04:32:43.896Z,100688.72
2018-08-17T04:35:12.527Z,100687.59
2018-08-17T04:37:41.417Z,100682.11
2018-08-17T04:40:10.004Z,100688.75
2018-08-17T04:42:38.675Z,100691.88
2018-08-17T04:45:08.176Z,100691.61
2018-08-17T04:47:36.877Z,100694.85
2018-08-17T04:50:06.327Z,100696.30
2018-08-17T04:52:34.862Z,100698.58
2018-08-17T04:55:03.544Z,100698.05
2018-08-17T04:57:32.075Z,100705.81
2018-08-17T05:00:00.715Z,100703.55
2018-08-17T05:02:29.364Z,100707.41
2018-08-17T05:04:57.937Z,100720.16
2018-08-17T05:07:26.458Z,100726.85
2018-08-17T05:09:54.983Z,100704.53
2018-08-17T05:12:23.625Z,100720.34
2018-08-17T05:14:52.122Z,100715.05
2018-08-17T05:17:20.755Z,100717.01
2018-08-17T05:19:49.353Z,100726.36
2018-08-17T05:22:17.875Z,100730.34
2018-08-17T05:24:46.454Z,100724.44
2018-08-17T05:27:14.963Z,100725.51
2018-08-17T05:29:43.565Z,100717.53
2018-08-17T05:32:12.289Z,100716.30
2018-08-17T05:34:40.812Z,100721.11
2018-08-17T05:37:09.321Z,100718.56
2018-08-17T05:39:37.934Z,100720.86
2018-08-17T05:42:06.588Z,100723.24
2018-08-17T05:44:36.432Z,100731.66
2018-08-17T05:47:05.072Z,100726.78
2018-08-17T05:49:34.315Z,100731.19
2018-08-17T05:52:02.943Z,100729.48
2018-08-17T05:54:31.788Z,100733.70
2018-08-17T05:57:00.349Z,100738.50
2018-08-17T05:59:28.917Z,100733.84
2018-08-17T06:01:57.643Z,100743.67
2018-08-17T06:04:26.255Z,100747.44
2018-08-17T06:06:55.352Z,100743.06
2018-08-17T06:09:24.617Z,100753.09
2018-08-17T06:11:53.151Z,100747.49
2018-08-17T06:14:21.784Z,100755.63
2018-08-17T06:16:50.365Z,100757.32
2018-08-17T06:19:19.594Z,100743.39
2018-08-17T06:21:48.129Z,100742.62
2018-08-17T06:24:16.793Z,100746.23
2018-08-17T06:26:45.439Z,100746.13
2018-08-17T06:29:14.762Z,100743.20
2018-08-17T06:31:44.409Z,100752.13
2018-08-17T06:34:12.974Z,100752.67
2018-08-17T06:36:41.526Z,100746.13
2018-08-17T06:39:11.542Z,100751.78
2018-08-17T06:41:40.399Z,100757.54
2018-08-17T06:44:09.128Z,100754.18
2018-08-17T06:46:37.679Z,100766.34
2018-08-17T06:49:06.923Z,100763.38
2018-08-17T06:51:35.747Z,100773.84
2018-08-17T06:54:04.343Z,100767.84
2018-08-17T06:56:33.507Z,100785.06
2018-08-17T06:59:02.034Z,100782.31
2018-08-17T07:01:32.103Z,100780.20
2018-08-17T07:04:00.670Z,100795.25
2018-08-17T07:06:29.397Z,100800.25
2018-08-17T07:08:58.014Z,100800.05
2018-08-17T07:11:26.664Z,100797.48
2018-08-17T07:13:55.338Z,100813.45
2018-08-17T07:16:24.819Z,100818.48
2018-08-17T07:18:53.405Z,100804.77
2018-08-17T07:21:22.022Z,100817.06
2018-08-17T07:23:51.386Z,100822.88
2018-08-17T07:26:19.963Z,100822.19
2018-08-17T07:28:48.586Z,100814.33
2018-08-17T07:31:17.169Z,100819.79
2018-08-17T07:33:45.855Z,100835.83
2018-08-17T07:36:14.542Z,100843.20
2018-08-17T07:38:43.043Z,100842.91
2018-08-17T07:41:11.709Z,100833.08
2018-08-17T07:43:40.380Z,100830.16
2018-08-17T07:46:10.163Z,100828.97
2018-08-17T07:48:39.442Z,100835.43
2018-08-17T07:51:08.605Z,100838.31
2018-08-17T07:53:38.716Z,100831.77
2018-08-17T07:56:07.355Z,100842.30
2018-08-17T07:58:35.984Z,100850.13
2018-08-17T08:01:04.619Z,100856.63
2018-08-17T08:03:33.204Z,100852.16
2018-08-17T08:06:02.419Z,100865.12
2018-08-17T08:08:30.950Z,100857.27
2018-08-17T08:11:00.596Z,100847.30
2018-08-17T08:13:29.088Z,100860.75
2018-08-17T08:15:57.706Z,100865.56
2018-08-17T08:18:26.740Z,100868.50
2018-08-17T08:20:56.200Z,100869.65
2018-08-17T08:23:28.278Z,100873.44
2018-08-17T08:25:59.543Z,100878.41
2018-08-17T08:28:29.530Z,100871.77
2018-08-17T08:30:59.791Z,100872.89
2018-08-17T08:33:29.418Z,100868.09
2018-08-17T08:35:58.757Z,100873.38
2018-08-17T08:38:29.025Z,100880.38
2018-08-17T08:40:59.508Z,100890.97
2018-08-17T08:43:30.318Z,100888.84
2018-08-17T08:46:00.095Z,100891.67
2018-08-17T08:48:29.866Z,100899.19
2018-08-17T08:51:00.599Z,100875.86
2018-08-17T08:53:29.895Z,100897.78
2018-08-17T08:55:59.594Z,100884.03
2018-08-17T08:58:28.612Z,100900.38
2018-08-17T09:00:57.134Z,100899.45
2018-08-17T09:03:26.493Z,100899.36
2018-08-17T09:05:55.102Z,100897.67
2018-08-17T09:08:23.751Z,100906.23
2018-08-17T09:10:52.271Z,100912.31
2018-08-17T09:13:20.878Z,100912.89
2018-08-17T09:15:49.446Z,100910.27
2018-08-17T09:18:18.902Z,100903.34
2018-08-17T09:20:47.590Z,100910.92
2018-08-17T09:23:16.091Z,100922.64
2018-08-17T09:25:44.751Z,100917.83
2018-08-17T09:28:13.443Z,100913.95
2018-08-17T09:30:42.019Z,100912.11
2018-08-17T09:33:10.663Z,100905.33
2018-08-17T09:35:39.370Z,100908.58
2018-08-17T09:38:08.011Z,100914.84
2018-08-17T09:40:37.185Z,100929.67
2018-08-17T09:43:05.988Z,100918.66
2018-08-17T09:45:34.644Z,100920.38
2018-08-17T09:48:03.386Z,100920.66
2018-08-17T09:50:32.013Z,100934.18
2018-08-17T09:53:00.619Z,100931.05
2018-08-17T09:55:29.130Z,100927.41
2018-08-17T09:57:57.625Z,100937.41
2018-08-17T10:00:32.198Z,100945.73
2018-08-17T10:03:06.397Z,100958.16
2018-08-17T10:05:38.673Z,100936.27
2018-08-17T10:08:12.321Z,100920.41
2018-08-17T10:10:41.020Z,100928.02
2018-08-17T10:13:09.646Z,100947.33
2018-08-17T10:15:38.151Z,100955.83
2018-08-17T10:18:06.760Z,100963.61
2018-08-17T10:20:35.407Z,100958.23
2018-08-17T10:23:10.936Z,100963.95
2018-08-17T10:25:40.051Z,100954.66
2018-08-17T10:28:09.350Z,100949.56
2018-08-17T10:30:38.013Z,100939.27
2018-08-17T10:33:06.519Z,100940.79
2018-08-17T10:35:36.356Z,100944.95
2018-08-17T10:38:07.151Z,100951.27
2018-08-17T10:40:35.649Z,100959.14
2018-08-17T10:43:05.805Z,100963.71
2018-08-17T10:45:34.890Z,100957.44
2018-08-17T10:48:03.749Z,100961.19
2018-08-17T10:50:33.443Z,100969.73
2018-08-17T10:53:03.193Z,100971.02
2018-08-17T10:55:41.732Z,100970.06
2018-08-17T10:58:13.183Z,100968.48
2018-08-17T11:00:42.000Z,100971.25
2018-08-17T11:03:10.821Z,100961.15
2018-08-17T11:05:39.426Z,100957.31
2018-08-17T11:08:08.297Z,100960.50
2018-08-17T11:10:36.945Z,100955.02
2018-08-17T11:13:05.733Z,100950.47
2018-08-17T11:15:34.340Z,100951.98
2018-08-17T11:18:03.005Z,100939.49
2018-08-17T11:20:31.676Z,100949.39
2018-08-17T11:23:00.536Z,100957.56
2018-08-17T11:25:29.111Z,100947.34
2018-08-17T11:27:57.665Z,100949.98
2018-08-17T11:30:26.263Z,100949.66
2018-08-17T11:32:54.846Z,100956.38
2018-08-17T11:35:23.435Z,100960.55
2018-08-17T11:37:52.118Z,100959.16
2018-08-17T11:40:20.679Z,100956.03
2018-08-17T11:42:50.320Z,100946.86
2018-08-17T11:45:27.234Z,100955.98
2018-08-17T11:47:57.059Z,100952.00
2018-08-17T11:50:26.637Z,100949.94
2018-08-17T11:52:56.575Z,100950.17
2018-08-17T11:55:26.347Z,100961.32
2018-08-17T11:57:55.043Z,100960.25
2018-08-17T12:00:24.064Z,100943.17
2018-08-17T12:02:52.711Z,100944.30
2018-08-17T12:05:21.542Z,100950.04
2018-08-17T12:07:50.430Z,100959.76
2018-08-17T12:10:19.016Z,100964.28
2018-08-17T12:12:47.843Z,100958.34
2018-08-17T12:15:17.304Z,100951.46
2018-08-17T12:17:45.935Z,100951.56
2018-08-17T12:20:14.674Z,100954.38
2018-08-17T12:22:43.257Z,100949.67
2018-08-17T12:25:12.096Z,100949.97
2018-08-17T12:27:46.891Z,100953.25
2018-08-17T12:30:15.394Z,100947.09
2018-08-17T12:32:44.044Z,100958.19
2018-08-17T12:35:12.712Z,100958.94
2018-08-17T12:37:41.410Z,100957.97
2018-08-17T12:40:10.075Z,100956.36
2018-08-17T12:42:39.346Z,100966.34
2018-08-17T12:45:13.027Z,100963.80
2018-08-17T12:47:43.066Z,100962.12
2018-08-17T12:50:11.703Z,100963.88
2018-08-17T12:52:40.229Z,100959.61
2018-08-17T12:55:09.447Z,100958.86
2018-08-17T12:57:40.846Z,100956.05
2018-08-17T13:00:09.473Z,100955.08
2018-08-17T13:02:38.093Z,100948.28
2018-08-17T13:05:06.836Z,100957.97
2018-08-17T13:07:35.346Z,100952.06
2018-08-17T13:10:04.267Z,100947.72
2018-08-17T13:12:32.868Z,100952.51
2018-08-17T13:15:01.439Z,100954.27
2018-08-17T13:17:48.637Z,100953.41
2018-08-17T13:20:17.936Z,100952.35
2018-08-17T13:22:46.471Z,100952.58
2018-08-17T13:25:15.205Z,100947.05
2018-08-17T13:27:44.271Z,100946.38
2018-08-17T13:30:14.570Z,100948.39
2018-08-17T13:32:43.974Z,100948.16
2018-08-17T13:35:13.635Z,100955.20
2018-08-17T13:37:43.089Z,100950.92
2018-08-17T13:40:12.234Z,100954.85
2018-08-17T13:42:41.124Z,100950.50
2018-08-17T13:45:10.587Z,100953.48
2018-08-17T13:47:39.151Z,100954.22
2018-08-17T13:50:08.104Z,100952.23
2018-08-17T13:52:36.731Z,100958.77
2018-08-17T13:55:05.372Z,100950.70
2018-08-17T13:57:33.866Z,100953.25
2018-08-17T14:00:03.252Z,100959.01
2018-08-17T14:02:31.937Z,100950.70
2018-08-17T14:05:00.559Z,100952.65
2018-08-17T14:07:29.167Z,100952.95
2018-08-17T14:09:57.818Z,100944.95
2018-08-17T14:12:26.473Z,100944.34
2018-08-17T14:14:54.985Z,100961.85
2018-08-17T14:17:24.355Z,100957.06
2018-08-17T14:19:52.983Z,100953.66
2018-08-17T14:22:21.563Z,100960.73
2018-08-17T14:24:50.206Z,100958.63
2018-08-17T14:27:18.857Z,100952.06
2018-08-17T14:29:48.093Z,100942.73
2018-08-17T14:32:16.671Z,100830.34
2018-08-17T14:34:45.971Z,100936.27
2018-08-17T14:37:14.483Z,100944.97
2018-08-17T14:39:43.102Z,100940.70
2018-08-17T14:42:11.663Z,100944.17
2018-08-17T14:44:40.405Z,100939.96
2018-08-17T14:47:09.002Z,100954.25
2018-08-17T14:49:39.462Z,100947.70
2018-08-17T14:52:08.068Z,100951.33
2018-08-17T14:54:36.696Z,100948.97
2018-08-17T14:57:05.368Z,100946.83
2018-08-17T14:59:33.978Z,100953.16
2018-08-17T15:02:02.537Z,100951.27
2018-08-17T15:04:31.116Z,100954.45
2018-08-17T15:06:59.699Z,100952.80
2018-08-17T15:09:28.328Z,100954.97
2018-08-17T15:11:56.886Z,100946.63
2018-08-17T15:14:25.487Z,100940.80
2018-08-17T15:16:54.133Z,100943.08
2018-08-17T15:19:24.911Z,100939.41
2018-08-17T15:21:53.599Z,100936.05
2018-08-17T15:24:22.174Z,100937.77
2018-08-17T15:26:50.819Z,100945.44
2018-08-17T15:29:19.505Z,100938.22
2018-08-17T15:31:48.031Z,100942.27
2018-08-17T15:34:16.672Z,100936.91
2018-08-17T15:36:45.734Z,100940.76
2018-08-17T15:39:14.439Z,100938.75
2018-08-17T15:41:45.017Z,100932.23
2018-08-17T15:44:18.955Z,100935.63
2018-08-17T15:46:47.627Z,100937.31
2018-08-17T15:49:22.003Z,100936.61
2018-08-17T15:51:50.679Z,100930.25
2018-08-17T15:54:20.141Z,100937.16
2018-08-17T15:56:48.765Z,100940.94
2018-08-17T15:59:17.862Z,100929.67
2018-08-17T16:01:46.468Z,100926.06
2018-08-17T16:04:15.282Z,100932.28
2018-08-17T16:06:43.876Z,100934.71
2018-08-17T16:09:13.607Z,100942.64
2018-08-17T16:11:42.309Z,100934.42
2018-08-17T16:14:10.964Z,100934.96
2018-08-17T16:16:40.963Z,100932.94
2018-08-17T16:19:10.479Z,100927.03
2018-08-17T16:21:39.699Z,100932.73
2018-08-17T16:24:08.379Z,100930.00
2018-08-17T16:26:36.906Z,100920.83
2018-08-17T16:29:05.998Z,100922.52
2018-08-17T16:31:40.791Z,100919.27
2018-08-17T16:34:10.064Z,100916.58
2018-08-17T16:36:40.963Z,100917.42
2018-08-17T16:39:12.453Z,100916.98
2018-08-17T16:41:41.104Z,100916.44
2018-08-17T16:44:09.703Z,100907.80
2018-08-17T16:46:39.642Z,100921.52
2018-08-17T16:49:08.407Z,100914.45
2018-08-17T16:51:37.460Z,100913.11
2018-08-17T16:54:06.446Z,100909.93
2018-08-17T16:56:35.337Z,100914.23
2018-08-17T16:59:04.162Z,100907.80
2018-08-17T17:01:34.346Z,100905.61
2018-08-17T17:04:03.034Z,100918.01
2018-08-17T17:06:32.221Z,100919.55
2018-08-17T17:09:02.858Z,100916.66
2018-08-17T17:11:31.669Z,100916.94
2018-08-17T17:14:00.318Z,100916.94
2018-08-17T17:16:37.294Z,100921.24
2018-08-17T17:19:09.602Z,100923.20
2018-08-17T17:21:41.035Z,100929.36
2018-08-17T17:24:09.733Z,100925.41
2018-08-17T17:26:38.324Z,100934.55
2018-08-17T17:29:07.394Z,100922.58
2018-08-17T17:31:36.070Z,100928.42
2018-08-17T17:34:04.731Z,100927.35
2018-08-17T17:36:33.299Z,100928.48
2018-08-17T17:39:02.523Z,100928.69
2018-08-17T17:41:32.751Z,100927.95
2018-08-17T17:44:01.913Z,100938.23
2018-08-17T17:46:30.650Z,100936.09
2018-08-17T17:48:59.191Z,100938.90
2018-08-17T17:51:28.722Z,100942.84
2018-08-17T17:53:58.806Z,100943.52
2018-08-17T17:56:28.149Z,100943.25
2018-08-17T17:59:06.261Z,100940.56
2018-08-17T18:01:35.219Z,100937.02
2018-08-17T18:04:05.415Z,100942.09
2018-08-17T18:06:33.998Z,100934.84
2018-08-17T18:09:02.845Z,100933.04
2018-08-17T18:11:31.442Z,100932.34
2018-08-17T18:14:00.183Z,100928.85
2018-08-17T18:16:28.866Z,100935.17
2018-08-17T18:18:57.449Z,100941.87
2018-08-17T18:21:32.131Z,100931.80
2018-08-17T18:24:06.947Z,100930.80
2018-08-17T18:26:35.974Z,100927.18
2018-08-17T18:29:04.584Z,100941.05
2018-08-17T18:31:33.200Z,100950.31
2018-08-17T18:34:01.868Z,100960.44
2018-08-17T18:36:32.005Z,100953.05
2018-08-17T18:39:01.057Z,100955.72
2018-08-17T18:41:29.691Z,100959.29
2018-08-17T18:43:59.238Z,100966.72
2018-08-17T18:46:27.895Z,100960.89
2018-08-17T18:48:56.517Z,100960.53
2018-08-17T18:51:25.091Z,100967.26
2018-08-17T18:53:53.654Z,100972.48
2018-08-17T18:56:22.244Z,100976.08
2018-08-17T18:58:50.889Z,100985.09
2018-08-17T19:01:19.772Z,100985.36
2018-08-17T19:03:48.567Z,100984.12
2018-08-17T19:06:17.100Z,100990.33
2018-08-17T19:08:46.094Z,100990.94
2018-08-17T19:11:14.682Z,100987.90
2018-08-17T19:13:43.223Z,100991.53
2018-08-17T19:16:11.961Z,100987.77
2018-08-17T19:18:40.475Z,100991.81
2018-08-17T19:21:12.959Z,100998.14
2018-08-17T19:23:41.625Z,100991.31
2018-08-17T19:26:10.910Z,101002.99
2018-08-17T19:28:39.820Z,100997.78
2018-08-17T19:31:08.712Z,101001.30
2018-08-17T19:33:37.398Z,101000.44
2018-08-17T19:36:07.576Z,101004.34
2018-08-17T19:38:39.859Z,101009.66
2018-08-17T19:41:08.682Z,101004.08
2018-08-17T19:43:37.606Z,101009.04
2018-08-17T19:46:06.665Z,101015.95
2018-08-17T19:48:35.483Z,101019.69
2018-08-17T19:51:10.124Z,101016.70
2018-08-17T19:53:38.886Z,101020.23
2018-08-17T19:56:08.261Z,101015.60
2018-08-17T19:58:37.623Z,101023.60
2018-08-17T20:01:08.002Z,101027.48
2018-08-17T20:03:36.673Z,101020.65
2018-08-17T20:06:05.360Z,101020.16
2018-08-17T20:08:34.254Z,101018.90
2018-08-17T20:11:02.912Z,100735.98
2018-08-17T20:13:31.623Z,101024.80
2018-08-17T20:16:00.201Z,101022.58
2018-08-17T20:18:28.888Z,101011.36
2018-08-17T20:20:57.772Z,101025.34
2018-08-17T20:23:26.429Z,101035.48
2018-08-17T20:25:55.272Z,101038.77
2018-08-17T20:28:24.143Z,101033.44
2018-08-17T20:30:52.776Z,101034.16
2018-08-17T20:33:28.169Z,101033.21
2018-08-17T20:35:57.615Z,101033.21
2018-08-17T20:38:26.974Z,101033.91
2018-08-17T20:40:59.825Z,101039.00
2018-08-17T20:43:28.894Z,101040.69
2018-08-17T20:45:57.586Z,101046.03
2018-08-17T20:48:26.217Z,101040.05
2018-08-17T20:50:54.960Z,101039.22
2018-08-17T20:53:24.100Z,101047.45
2018-08-17T20:55:52.685Z,101047.92
2018-08-17T20:58:21.233Z,101050.34
2018-08-17T21:00:49.851Z,101051.67
2018-08-17T21:03:18.512Z,101043.05
2018-08-17T21:05:47.046Z,101049.73
2018-08-17T21:08:15.808Z,101053.73
2018-08-17T21:10:44.384Z,101049.14
2018-08-17T21:13:13.536Z,101051.67
2018-08-17T21:15:42.895Z,101000.58
2018-08-17T21:18:11.564Z,101053.17
2018-08-17T21:20:40.864Z,101065.39
2018-08-17T21:23:10.041Z,101065.50
2018-08-17T21:25:38.852Z,101068.00
2018-08-17T21:28:07.435Z,101074.02
2018-08-17T21:30:36.039Z,101071.86
2018-08-17T21:33:04.705Z,101073.63
2018-08-17T21:35:33.339Z,101074.70
2018-08-17T21:38:01.923Z,101077.48
2018-08-17T21:40:31.273Z,101075.39
2018-08-17T21:43:01.292Z,101073.52
2018-08-17T21:45:30.182Z,101072.80
2018-08-17T21:47:58.892Z,101072.80
2018-08-17T21:50:27.553Z,101070.05
2018-08-17T21:52:56.335Z,101075.14
2018-08-17T21:55:24.924Z,101077.66
2018-08-17T21:57:53.595Z,101081.11
2018-08-17T22:00:28.906Z,101084.95
2018-08-17T22:02:57.835Z,101086.21
2018-08-17T22:05:31.659Z,101090.72
2018-08-17T22:08:00.736Z,101091.50
2018-08-17T22:10:30.035Z,101087.50
2018-08-17T22:12:59.438Z,101093.23
2018-08-17T22:15:29.623Z,101094.37
2018-08-17T22:17:58.198Z,101096.46
2018-08-17T22:20:26.872Z,101084.47
2018-08-17T22:22:55.541Z,101090.27
2018-08-17T22:25:24.297Z,101088.67
2018-08-17T22:27:52.987Z,101087.20
2018-08-17T22:30:24.551Z,101090.06
2018-08-17T22:32:53.222Z,101079.62
2018-08-17T22:35:21.960Z,101078.86
2018-08-17T22:37:50.543Z,101078.31
2018-08-17T22:40:19.098Z,101082.72
2018-08-17T22:42:48.762Z,101080.00
2018-08-17T22:45:17.718Z,101078.98
2018-08-17T22:47:46.644Z,101080.52
2018-08-17T22:50:15.250Z,101076.94
2018-08-17T22:52:43.895Z,101084.56
2018-08-17T22:55:12.514Z,101064.97
2018-08-17T22:57:41.304Z,101072.80
2018-08-17T23:00:18.187Z,101070.70
2018-08-17T23:02:48.510Z,101070.91
2018-08-17T23:05:18.894Z,101077.77
2018-08-17T23:07:47.415Z,101081.30
2018-08-17T23:10:17.999Z,101077.44
2018-08-17T23:12:47.702Z,101072.05
2018-08-17T23:15:16.229Z,101075.95
2018-08-17T23:18:01.538Z,101077.52
2018-08-17T23:20:36.196Z,101078.28
2018-08-17T23:23:06.071Z,101084.95
2018-08-17T23:25:35.029Z,101087.25
2018-08-17T23:28:03.744Z,101084.98
2018-08-17T23:30:32.362Z,101092.19
2018-08-17T23:33:01.094Z,101094.39
2018-08-17T23:35:29.879Z,101098.47
2018-08-17T23:37:58.665Z,101092.39
2018-08-17T23:40:27.454Z,101096.57
2018-08-17T23:42:56.039Z,101097.36
2018-08-17T23:45:24.620Z,101105.14
2018-08-17T23:47:53.356Z,101102.29
2018-08-17T23:50:22.047Z,101106.84
2018-08-17T23:52:50.676Z,101100.38
2018-08-17T23:55:19.278Z,101099.33
2018-08-17T23:57:48.048Z,101106.72
